Time;durP1;ratioP1;P1;durP2;ratioP2;P2;SDS_P1;SDS_P2;PMS_P1;PMS_P2;Temp;Humidity;BMP_temperature;BMP_pressure;BME280_temperature;BME280_humidity;BME280_pressure;Samples;Min_cycle;Max_cycle;Signal;HPM_P1;HPM_P2
2022/09/22 00:01:38;;;;;;;3.53;1.10;;;;;;;;;;5096043;28;20052;-47
2022/09/22 00:04:07;;;;;;;2.15;0.95;;;;;;;;;;5095666;28;20059;-48
2022/09/22 00:06:38;;;;;;;1.75;0.75;;;;;;;;;;5095364;28;20479;-48
2022/09/22 00:09:08;;;;;;;3.17;1.48;;;;;;;;;;5095776;28;20048;-48
2022/09/22 00:11:37;;;;;;;2.45;1.10;;;;;;;;;;5094824;28;20079;-48
2022/09/22 00:14:08;;;;;;;2.78;0.90;;;;;;;;;;5094837;28;20048;-48
2022/09/22 00:16:38;;;;;;;2.80;0.95;;;;;;;;;;5095447;28;20542;-48
2022/09/22 00:19:07;;;;;;;3.33;1.50;;;;;;;;;;5094373;28;20052;-47
2022/09/22 00:21:35;;;;;;;2.95;0.90;;;;;;;;;;5083625;28;20050;-47
2022/09/22 00:24:11;;;;;;;3.53;0.90;;;;;;;;;;5094560;28;20052;-47
2022/09/22 00:26:52;;;;;;;2.20;1.02;;;;;;;;;;5095217;28;20044;-48
2022/09/22 00:29:18;;;;;;;1.90;0.98;;;;;;;;;;5094985;28;20044;-48
2022/09/22 00:31:47;;;;;;;3.08;0.98;;;;;;;;;;5094857;28;20047;-47
2022/09/22 00:34:23;;;;;;;2.00;1.20;;;;;;;;;;5094766;28;20066;-49
2022/09/22 00:36:52;;;;;;;3.80;1.00;;;;;;;;;;5094997;28;20637;-48
2022/09/22 00:39:22;;;;;;;1.70;0.85;;;;;;;;;;5090086;28;20055;-48
2022/09/22 00:41:55;;;;;;;2.58;1.17;;;;;;;;;;5094411;28;20605;-47
2022/09/22 00:44:38;;;;;;;2.30;0.80;;;;;;;;;;5095265;28;20135;-47
2022/09/22 00:47:11;;;;;;;1.52;0.70;;;;;;;;;;5094974;28;20064;-51
2022/09/22 00:49:42;;;;;;;2.33;0.90;;;;;;;;;;5094598;28;20436;-47
2022/09/22 00:52:11;;;;;;;2.70;0.90;;;;;;;;;;5094805;28;20136;-47
2022/09/22 00:54:41;;;;;;;2.33;0.88;;;;;;;;;;5094441;28;20048;-50
2022/09/22 00:57:13;;;;;;;2.15;0.73;;;;;;;;;;5094830;28;20143;-48
2022/09/22 00:59:43;;;;;;;2.55;1.10;;;;;;;;;;5094476;28;20048;-49
2022/09/22 01:02:13;;;;;;;1.90;0.80;;;;;;;;;;5089532;28;20060;-47
2022/09/22 01:04:43;;;;;;;2.42;0.80;;;;;;;;;;5094800;28;20079;-47
2022/09/22 01:07:14;;;;;;;3.47;1.25;;;;;;;;;;5094268;28;20079;-48
2022/09/22 01:09:42;;;;;;;2.40;0.90;;;;;;;;;;5086605;28;20052;-46
2022/09/22 01:12:12;;;;;;;3.97;0.95;;;;;;;;;;5094394;28;20052;-46
2022/09/22 01:14:48;;;;;;;1.63;0.73;;;;;;;;;;5094550;28;20143;-47
2022/09/22 01:17:25;;;;;;;1.98;0.95;;;;;;;;;;5092180;28;20435;-47
2022/09/22 01:20:14;;;;;;;2.75;1.08;;;;;;;;;;5084256;28;20415;-47
2022/09/22 01:23:07;;;;;;;2.85;0.70;;;;;;;;;;5094328;28;20048;-48
2022/09/22 01:25:48;;;;;;;1.27;0.70;;;;;;;;;;5094252;28;20637;-47
2022/09/22 01:28:33;;;;;;;2.65;1.63;;;;;;;;;;5080928;28;20047;-47
2022/09/22 01:31:07;;;;;;;2.60;1.00;;;;;;;;;;5093835;28;20048;-48
2022/09/22 01:33:41;;;;;;;3.10;0.90;;;;;;;;;;5094262;28;20204;-47
2022/09/22 01:36:14;;;;;;;3.40;0.90;;;;;;;;;;5093183;28;20056;-49
2022/09/22 01:38:48;;;;;;;2.30;0.88;;;;;;;;;;5092172;28;20048;-48
2022/09/22 01:41:19;;;;;;;3.28;0.60;;;;;;;;;;5093945;28;20070;-46
2022/09/22 01:43:49;;;;;;;2.55;1.02;;;;;;;;;;5093722;28;20047;-47
2022/09/22 01:46:25;;;;;;;2.30;0.63;;;;;;;;;;5094048;28;20059;-47
2022/09/22 01:48:55;;;;;;;2.95;0.80;;;;;;;;;;5082983;28;20044;-46
2022/09/22 01:51:26;;;;;;;2.90;0.88;;;;;;;;;;5095845;28;20055;-47
2022/09/22 01:53:56;;;;;;;1.33;0.55;;;;;;;;;;5088765;28;20063;-47
2022/09/22 01:56:27;;;;;;;2.22;0.80;;;;;;;;;;5093911;28;20051;-46
2022/09/22 01:58:55;;;;;;;2.25;0.55;;;;;;;;;;5092945;28;20043;-46
2022/09/22 02:01:29;;;;;;;2.80;0.80;;;;;;;;;;5094085;28;20060;-48
2022/09/22 02:04:02;;;;;;;1.50;0.50;;;;;;;;;;5093716;28;20040;-47
2022/09/22 02:06:34;;;;;;;2.17;1.05;;;;;;;;;;5087605;28;20040;-46
2022/09/22 02:09:04;;;;;;;3.13;0.75;;;;;;;;;;5085343;28;20056;-47
2022/09/22 02:11:34;;;;;;;2.33;1.00;;;;;;;;;;5079497;28;20778;-46
2022/09/22 02:14:04;;;;;;;1.92;0.73;;;;;;;;;;5093324;28;20048;-46
2022/09/22 02:16:45;;;;;;;3.15;1.15;;;;;;;;;;5093313;28;20044;-47
2022/09/22 02:19:17;;;;;;;2.30;0.80;;;;;;;;;;5092939;28;20131;-48
2022/09/22 02:21:48;;;;;;;2.03;0.63;;;;;;;;;;5093525;28;20087;-47
2022/09/22 02:24:31;;;;;;;1.60;0.75;;;;;;;;;;5079383;28;20056;-47
2022/09/22 02:27:00;;;;;;;2.50;0.90;;;;;;;;;;5092623;28;20059;-46
2022/09/22 02:29:32;;;;;;;1.63;0.80;;;;;;;;;;5093156;28;20048;-47
2022/09/22 02:32:07;;;;;;;2.90;0.80;;;;;;;;;;5093446;28;20048;-47
2022/09/22 02:34:36;;;;;;;1.27;0.70;;;;;;;;;;5092873;28;20060;-47
2022/09/22 02:37:06;;;;;;;3.28;0.95;;;;;;;;;;5093066;28;20142;-47
2022/09/22 02:39:42;;;;;;;1.20;0.63;;;;;;;;;;5092465;28;20044;-46
2022/09/22 02:42:26;;;;;;;3.70;0.73;;;;;;;;;;5080456;28;20059;-48
2022/09/22 02:44:56;;;;;;;1.17;0.60;;;;;;;;;;5092240;28;20453;-48
2022/09/22 02:47:28;;;;;;;2.28;0.57;;;;;;;;;;5092243;28;20055;-48
2022/09/22 02:49:58;;;;;;;3.15;1.00;;;;;;;;;;5091456;28;20461;-50
2022/09/22 02:52:26;;;;;;;1.70;0.80;;;;;;;;;;5092607;28;20433;-47
2022/09/22 02:54:53;;;;;;;2.45;0.65;;;;;;;;;;5092326;28;20051;-51
2022/09/22 02:57:23;;;;;;;1.60;0.60;;;;;;;;;;5092814;28;20059;-47
2022/09/22 02:59:50;;;;;;;1.45;0.50;;;;;;;;;;5086860;28;20101;-48
2022/09/22 03:02:21;;;;;;;1.77;0.60;;;;;;;;;;5074611;28;20052;-49
2022/09/22 03:05:02;;;;;;;1.45;0.50;;;;;;;;;;5073262;28;20048;-49
2022/09/22 03:07:31;;;;;;;1.75;0.55;;;;;;;;;;5092477;28;20052;-48
2022/09/22 03:09:58;;;;;;;1.52;0.60;;;;;;;;;;5093013;28;20060;-48
2022/09/22 03:12:25;;;;;;;1.50;0.60;;;;;;;;;;5092931;28;20056;-47
2022/09/22 03:14:54;;;;;;;1.95;0.65;;;;;;;;;;5083633;28;20037;-47
2022/09/22 03:17:24;;;;;;;2.00;0.70;;;;;;;;;;5080114;28;20052;-48
2022/09/22 03:20:00;;;;;;;2.22;0.57;;;;;;;;;;5092239;28;20143;-49
2022/09/22 03:22:28;;;;;;;2.03;0.60;;;;;;;;;;5092855;28;20052;-48
2022/09/22 03:24:57;;;;;;;2.35;0.70;;;;;;;;;;5092515;28;20048;-47
2022/09/22 03:27:24;;;;;;;2.08;0.90;;;;;;;;;;5092203;28;20143;-48
2022/09/22 03:29:54;;;;;;;2.25;0.60;;;;;;;;;;5087537;28;20044;-47
2022/09/22 03:32:20;;;;;;;1.63;0.57;;;;;;;;;;5092803;28;20135;-48
2022/09/22 03:34:47;;;;;;;2.38;0.70;;;;;;;;;;5084708;28;20080;-48
2022/09/22 03:37:22;;;;;;;2.35;0.50;;;;;;;;;;5088666;28;20063;-47
2022/09/22 03:39:50;;;;;;;2.35;0.57;;;;;;;;;;5085641;28;20392;-48
2022/09/22 03:42:17;;;;;;;2.22;0.75;;;;;;;;;;5091973;28;20056;-48
2022/09/22 03:44:46;;;;;;;0.75;0.40;;;;;;;;;;5091314;28;20048;-49
2022/09/22 03:47:18;;;;;;;1.60;0.40;;;;;;;;;;5091802;28;20353;-49
2022/09/22 03:49:46;;;;;;;0.70;0.47;;;;;;;;;;5090502;28;20111;-47
2022/09/22 03:52:19;;;;;;;1.35;0.47;;;;;;;;;;5090863;28;20188;-47
2022/09/22 03:54:48;;;;;;;0.85;0.30;;;;;;;;;;5089959;28;20059;-47
2022/09/22 03:57:17;;;;;;;0.73;0.40;;;;;;;;;;5092152;28;20059;-48
2022/09/22 03:59:45;;;;;;;1.00;0.40;;;;;;;;;;5091759;28;20480;-48
2022/09/22 04:02:15;;;;;;;1.15;0.35;;;;;;;;;;5093915;28;20054;-49
2022/09/22 04:04:45;;;;;;;1.00;0.40;;;;;;;;;;5095669;28;20396;-47
2022/09/22 04:07:11;;;;;;;0.80;0.40;;;;;;;;;;5095525;28;20084;-47
2022/09/22 04:09:53;;;;;;;0.95;0.50;;;;;;;;;;5096148;28;20047;-48
2022/09/22 04:12:19;;;;;;;1.17;0.45;;;;;;;;;;5087922;28;20142;-48
2022/09/22 04:14:47;;;;;;;1.05;0.50;;;;;;;;;;5076323;28;20131;-47
2022/09/22 04:17:16;;;;;;;0.98;0.45;;;;;;;;;;5093702;28;20071;-46
2022/09/22 04:19:46;;;;;;;2.13;0.50;;;;;;;;;;5095211;28;20406;-50
2022/09/22 04:22:15;;;;;;;1.02;0.60;;;;;;;;;;5094866;28;20048;-46
2022/09/22 04:24:58;;;;;;;1.17;0.50;;;;;;;;;;5095602;28;20048;-49
2022/09/22 04:27:26;;;;;;;0.95;0.60;;;;;;;;;;5094968;28;20060;-47
2022/09/22 04:29:54;;;;;;;1.60;0.77;;;;;;;;;;5094989;28;20318;-49
2022/09/22 04:32:24;;;;;;;0.80;0.40;;;;;;;;;;5095220;28;20052;-51
2022/09/22 04:34:53;;;;;;;2.80;0.82;;;;;;;;;;5094876;28;20063;-48
2022/09/22 04:37:20;;;;;;;1.17;0.52;;;;;;;;;;5095117;28;20048;-47
2022/09/22 04:40:02;;;;;;;2.20;0.73;;;;;;;;;;5093710;28;20036;-49
2022/09/22 04:42:41;;;;;;;1.63;0.60;;;;;;;;;;5095245;28;20067;-47
2022/09/22 04:45:09;;;;;;;1.35;0.70;;;;;;;;;;5094876;28;20052;-50
2022/09/22 04:47:38;;;;;;;1.63;0.50;;;;;;;;;;5094320;28;20047;-48
2022/09/22 04:50:09;;;;;;;1.98;0.95;;;;;;;;;;5091101;28;20053;-51
2022/09/22 04:52:37;;;;;;;0.98;0.50;;;;;;;;;;5094555;28;20052;-48
2022/09/22 04:55:14;;;;;;;1.23;0.57;;;;;;;;;;5094098;28;20497;-49
2022/09/22 04:57:42;;;;;;;2.03;0.50;;;;;;;;;;5095080;28;20044;-47
2022/09/22 05:00:10;;;;;;;1.65;0.80;;;;;;;;;;5094673;28;20049;-48
2022/09/22 05:02:39;;;;;;;7.03;0.93;;;;;;;;;;5094907;28;20145;-48
2022/09/22 05:05:07;;;;;;;3.53;1.10;;;;;;;;;;5094101;28;20474;-48
2022/09/22 05:07:36;;;;;;;3.03;0.80;;;;;;;;;;5091537;28;20520;-47
2022/09/22 05:10:19;;;;;;;1.35;0.82;;;;;;;;;;5090272;28;20054;-47
2022/09/22 05:12:48;;;;;;;2.67;0.88;;;;;;;;;;5092766;28;20052;-48
2022/09/22 05:15:18;;;;;;;2.20;0.90;;;;;;;;;;5084474;28;20135;-49
2022/09/22 05:17:48;;;;;;;2.38;0.98;;;;;;;;;;5093686;28;20044;-49
2022/09/22 05:20:15;;;;;;;2.25;0.75;;;;;;;;;;5094596;28;20067;-51
2022/09/22 05:22:44;;;;;;;1.88;0.85;;;;;;;;;;5089736;28;20129;-47
2022/09/22 05:25:15;;;;;;;2.22;0.93;;;;;;;;;;5089479;28;20063;-47
2022/09/22 05:27:48;;;;;;;3.72;0.88;;;;;;;;;;5094171;28;20063;-48
2022/09/22 05:30:19;;;;;;;1.55;0.70;;;;;;;;;;5094180;28;20398;-47
2022/09/22 05:32:48;;;;;;;1.73;0.90;;;;;;;;;;5093961;28;20090;-48
2022/09/22 05:35:19;;;;;;;1.60;0.80;;;;;;;;;;5093916;28;20444;-49
2022/09/22 05:37:47;;;;;;;1.80;1.00;;;;;;;;;;5088743;28;20048;-48
2022/09/22 05:40:18;;;;;;;2.95;1.15;;;;;;;;;;5091473;28;20036;-48
2022/09/22 05:42:46;;;;;;;3.78;1.08;;;;;;;;;;5088687;28;20060;-47
2022/09/22 05:45:15;;;;;;;2.17;0.90;;;;;;;;;;5094072;28;20052;-48
2022/09/22 05:47:43;;;;;;;1.40;0.85;;;;;;;;;;5093907;28;20109;-48
2022/09/22 05:50:10;;;;;;;2.08;0.70;;;;;;;;;;5081233;28;20044;-48
2022/09/22 05:52:38;;;;;;;1.42;0.60;;;;;;;;;;5094154;28;20071;-48
2022/09/22 05:55:09;;;;;;;1.35;0.60;;;;;;;;;;5093378;28;20056;-47
2022/09/22 05:57:38;;;;;;;1.73;0.55;;;;;;;;;;5084637;28;20051;-48
2022/09/22 06:00:07;;;;;;;2.35;0.63;;;;;;;;;;5093604;28;20059;-47
2022/09/22 06:02:37;;;;;;;1.25;0.52;;;;;;;;;;5056122;28;20105;-48
2022/09/22 06:05:08;;;;;;;2.83;0.50;;;;;;;;;;5089322;28;20092;-48
2022/09/22 06:07:38;;;;;;;0.85;0.30;;;;;;;;;;5088984;28;20460;-48
2022/09/22 06:10:09;;;;;;;1.25;0.40;;;;;;;;;;5074259;28;20489;-47
2022/09/22 06:12:38;;;;;;;1.20;0.50;;;;;;;;;;5083391;28;20063;-47
2022/09/22 06:15:11;;;;;;;1.10;0.55;;;;;;;;;;5080358;28;20048;-49
2022/09/22 06:17:38;;;;;;;1.65;0.50;;;;;;;;;;5086652;28;20044;-48
2022/09/22 06:20:07;;;;;;;1.77;0.75;;;;;;;;;;5083750;28;20060;-45
2022/09/22 06:22:38;;;;;;;3.50;0.60;;;;;;;;;;5086597;28;20113;-46
2022/09/22 06:25:07;;;;;;;1.13;0.80;;;;;;;;;;5088921;28;20106;-46
2022/09/22 06:27:38;;;;;;;2.20;0.98;;;;;;;;;;5086663;28;20101;-45
2022/09/22 06:30:23;;;;;;;1.23;0.55;;;;;;;;;;5090153;28;20137;-47
2022/09/22 06:32:54;;;;;;;2.22;0.70;;;;;;;;;;5089427;28;20043;-47
2022/09/22 06:35:21;;;;;;;1.23;0.60;;;;;;;;;;5090583;28;20181;-48
2022/09/22 06:37:58;;;;;;;1.95;0.70;;;;;;;;;;5087018;28;20044;-47
2022/09/22 06:40:26;;;;;;;1.65;0.80;;;;;;;;;;5087095;28;20045;-48
2022/09/22 06:43:10;;;;;;;2.13;0.82;;;;;;;;;;5090295;28;20132;-53
2022/09/22 06:45:50;;;;;;;1.88;0.80;;;;;;;;;;5091934;28;20460;-47
2022/09/22 06:48:22;;;;;;;1.60;0.60;;;;;;;;;;5089347;28;20075;-49
2022/09/22 06:50:58;;;;;;;2.15;0.70;;;;;;;;;;5089510;28;20131;-47
2022/09/22 06:53:28;;;;;;;2.10;0.90;;;;;;;;;;5089356;28;20538;-46
2022/09/22 06:55:59;;;;;;;1.13;0.63;;;;;;;;;;5081540;28;20052;-47
2022/09/22 06:58:27;;;;;;;3.08;0.90;;;;;;;;;;5082908;28;20117;-46
2022/09/22 07:01:05;;;;;;;2.90;1.17;;;;;;;;;;5082858;28;20101;-45
2022/09/22 07:03:39;;;;;;;5.43;1.40;;;;;;;;;;5087264;28;20058;-46
2022/09/22 07:06:06;;;;;;;3.42;0.90;;;;;;;;;;5090317;28;20173;-47
2022/09/22 07:08:37;;;;;;;2.45;0.80;;;;;;;;;;5084820;28;20433;-47
2022/09/22 07:11:06;;;;;;;1.85;0.82;;;;;;;;;;5089802;28;20664;-45
2022/09/22 07:13:36;;;;;;;1.48;0.73;;;;;;;;;;5088888;28;20052;-46
2022/09/22 07:16:10;;;;;;;1.73;0.80;;;;;;;;;;5084961;28;20068;-47
2022/09/22 07:18:40;;;;;;;2.25;0.80;;;;;;;;;;5083693;28;20048;-47
2022/09/22 07:21:08;;;;;;;2.47;0.70;;;;;;;;;;5090845;28;20052;-46
2022/09/22 07:23:39;;;;;;;2.63;0.70;;;;;;;;;;5087788;28;20063;-47
2022/09/22 07:26:09;;;;;;;2.47;1.02;;;;;;;;;;5090403;28;20213;-51
2022/09/22 07:28:37;;;;;;;3.20;1.02;;;;;;;;;;5090994;28;20052;-47
2022/09/22 07:31:11;;;;;;;2.28;0.95;;;;;;;;;;5091246;28;20062;-47
2022/09/22 07:33:41;;;;;;;2.47;0.70;;;;;;;;;;5082379;28;20048;-47
2022/09/22 07:36:17;;;;;;;1.45;0.70;;;;;;;;;;5083139;28;20052;-47
2022/09/22 07:38:48;;;;;;;3.33;0.77;;;;;;;;;;5089023;28;20143;-46
2022/09/22 07:41:18;;;;;;;1.00;0.45;;;;;;;;;;5090940;28;20117;-46
2022/09/22 07:43:49;;;;;;;1.05;0.50;;;;;;;;;;5094907;28;20072;-45
2022/09/22 07:46:24;;;;;;;0.82;0.30;;;;;;;;;;5095541;28;20063;-49
2022/09/22 07:48:53;;;;;;;1.33;0.50;;;;;;;;;;5092601;28;20083;-45
2022/09/22 07:51:20;;;;;;;1.00;0.50;;;;;;;;;;5094242;28;20040;-48
2022/09/22 07:53:47;;;;;;;1.20;0.60;;;;;;;;;;5091792;28;20059;-47
2022/09/22 07:56:17;;;;;;;1.50;0.70;;;;;;;;;;5094742;28;20063;-47
2022/09/22 07:58:48;;;;;;;1.10;0.52;;;;;;;;;;5090373;28;20044;-46
2022/09/22 08:01:25;;;;;;;0.57;0.40;;;;;;;;;;5094537;28;20119;-46
2022/09/22 08:03:52;;;;;;;2.35;0.85;;;;;;;;;;5094023;28;20048;-47
2022/09/22 08:06:27;;;;;;;1.85;0.55;;;;;;;;;;5094126;28;20044;-47
2022/09/22 08:08:55;;;;;;;2.42;0.43;;;;;;;;;;5090105;28;20048;-47
2022/09/22 08:11:25;;;;;;;1.02;0.50;;;;;;;;;;5094186;28;20044;-46
2022/09/22 08:13:56;;;;;;;1.98;0.50;;;;;;;;;;5086103;28;20354;-48
2022/09/22 08:16:29;;;;;;;0.80;0.60;;;;;;;;;;5085912;28;20498;-48
2022/09/22 08:18:59;;;;;;;1.48;0.50;;;;;;;;;;5078618;28;20057;-46
2022/09/22 08:21:28;;;;;;;2.20;0.50;;;;;;;;;;5094568;28;20054;-47
2022/09/22 08:23:57;;;;;;;1.33;0.60;;;;;;;;;;5092148;28;20109;-46
2022/09/22 08:26:27;;;;;;;1.77;0.70;;;;;;;;;;5084290;28;20059;-46
2022/09/22 08:28:57;;;;;;;2.28;0.98;;;;;;;;;;5087097;28;20476;-46
2022/09/22 08:31:35;;;;;;;3.22;1.40;;;;;;;;;;5094420;28;20069;-47
2022/09/22 08:34:05;;;;;;;3.38;2.38;;;;;;;;;;5086733;28;20058;-47
2022/09/22 08:36:31;;;;;;;2.30;1.30;;;;;;;;;;5094901;28;20052;-48
2022/09/22 08:38:59;;;;;;;1.67;1.08;;;;;;;;;;5090457;28;20707;-47
2022/09/22 08:41:37;;;;;;;2.13;0.90;;;;;;;;;;5088392;28;20056;-46
2022/09/22 08:44:15;;;;;;;3.38;0.80;;;;;;;;;;5094319;28;20051;-47
2022/09/22 08:46:46;;;;;;;1.60;0.80;;;;;;;;;;5092328;28;20732;-46
2022/09/22 08:52:10;;;;;;;1.27;0.70;;;;;;;;;;5083726;28;20122;-47
2022/09/22 08:54:37;;;;;;;1.35;0.40;;;;;;;;;;5078403;28;20071;-49
2022/09/22 08:57:30;;;;;;;1.30;0.63;;;;;;;;;;5089787;28;20047;-48
2022/09/22 09:00:08;;;;;;;1.08;0.40;;;;;;;;;;5091908;28;20055;-47
2022/09/22 09:02:46;;;;;;;2.00;0.60;;;;;;;;;;5091657;28;20097;-49
2022/09/22 09:05:38;;;;;;;1.77;0.60;;;;;;;;;;5094019;28;20048;-47
2022/09/22 09:08:20;;;;;;;0.80;0.38;;;;;;;;;;5084779;28;20085;-46
2022/09/22 09:10:55;;;;;;;3.83;0.77;;;;;;;;;;5091906;28;20136;-48
2022/09/22 09:13:37;;;;;;;4.93;0.80;;;;;;;;;;5094048;28;20155;-48
2022/09/22 09:16:10;;;;;;;1.50;0.50;;;;;;;;;;5083828;28;20329;-46
2022/09/22 09:18:40;;;;;;;2.03;0.90;;;;;;;;;;5088859;28;20430;-48
2022/09/22 09:21:12;;;;;;;1.70;0.68;;;;;;;;;;5092232;28;20081;-48
2022/09/22 09:23:41;;;;;;;1.77;0.73;;;;;;;;;;5092682;28;20350;-48
2022/09/22 09:26:08;;;;;;;1.63;0.73;;;;;;;;;;5093039;28;20052;-48
2022/09/22 09:28:40;;;;;;;2.88;1.00;;;;;;;;;;5086403;28;20051;-49
2022/09/22 09:31:11;;;;;;;2.55;1.05;;;;;;;;;;5090864;28;20105;-47
2022/09/22 09:33:49;;;;;;;1.08;0.55;;;;;;;;;;5089879;28;20056;-49
2022/09/22 09:36:21;;;;;;;1.02;0.50;;;;;;;;;;5093119;28;20048;-47
2022/09/22 09:38:52;;;;;;;3.35;0.70;;;;;;;;;;5090343;28;20056;-47
2022/09/22 09:41:33;;;;;;;2.08;0.68;;;;;;;;;;5087370;28;20051;-47
2022/09/22 09:44:08;;;;;;;2.20;0.75;;;;;;;;;;5092887;28;20109;-48
2022/09/22 09:46:44;;;;;;;2.42;0.80;;;;;;;;;;5083578;28;20056;-46
2022/09/22 09:49:26;;;;;;;1.50;0.60;;;;;;;;;;5083248;28;20095;-46
2022/09/22 09:52:03;;;;;;;1.42;0.45;;;;;;;;;;5085970;28;20047;-46
2022/09/22 09:54:32;;;;;;;1.70;0.60;;;;;;;;;;5087862;28;20528;-46
2022/09/22 09:57:07;;;;;;;2.97;0.73;;;;;;;;;;5083555;28;20491;-47
2022/09/22 10:02:24;;;;;;;1.92;0.57;;;;;;;;;;5088871;28;20376;-45
2022/09/22 10:04:55;;;;;;;1.60;0.60;;;;;;;;;;5084866;28;20051;-45
2022/09/22 10:07:26;;;;;;;2.03;0.60;;;;;;;;;;5086511;28;20048;-45
2022/09/22 10:09:54;;;;;;;3.33;0.60;;;;;;;;;;5081464;28;20629;-44
2022/09/22 10:12:24;;;;;;;2.50;0.70;;;;;;;;;;5080232;28;20119;-47
2022/09/22 10:14:52;;;;;;;1.40;0.60;;;;;;;;;;5091676;28;20052;-49
2022/09/22 10:17:24;;;;;;;2.05;0.60;;;;;;;;;;5089152;28;20048;-48
2022/09/22 10:19:50;;;;;;;1.50;0.63;;;;;;;;;;5090438;28;20055;-45
2022/09/22 10:22:30;;;;;;;1.30;0.65;;;;;;;;;;5091997;28;20036;-45
2022/09/22 10:24:58;;;;;;;1.23;0.63;;;;;;;;;;5092072;28;20279;-44
2022/09/22 10:27:28;;;;;;;4.65;1.15;;;;;;;;;;5092577;28;20047;-46
2022/09/22 10:30:18;;;;;;;1.75;0.80;;;;;;;;;;5092135;28;20084;-47
2022/09/22 10:33:05;;;;;;;2.78;0.90;;;;;;;;;;5082820;28;20123;-48
2022/09/22 10:35:34;;;;;;;2.47;0.60;;;;;;;;;;5080814;28;20060;-47
2022/09/22 10:38:06;;;;;;;1.65;0.90;;;;;;;;;;5085387;28;20453;-46
2022/09/22 10:40:35;;;;;;;1.42;0.80;;;;;;;;;;5087453;28;20051;-46
2022/09/22 10:43:03;;;;;;;1.27;0.43;;;;;;;;;;5086294;28;20040;-47
2022/09/22 10:45:36;;;;;;;2.17;0.50;;;;;;;;;;5089936;28;20048;-47
2022/09/22 10:48:07;;;;;;;0.60;0.30;;;;;;;;;;5081077;28;20071;-48
2022/09/22 10:50:51;;;;;;;2.17;0.40;;;;;;;;;;5090608;28;20059;-49
2022/09/22 10:53:33;;;;;;;0.52;0.28;;;;;;;;;;5083893;28;20036;-47
2022/09/22 10:56:09;;;;;;;0.50;0.30;;;;;;;;;;5078748;28;20063;-47
2022/09/22 10:58:46;;;;;;;0.32;0.20;;;;;;;;;;5091154;28;20595;-48
2022/09/22 11:01:23;;;;;;;0.20;0.20;;;;;;;;;;5090339;28;20135;-46
2022/09/22 11:04:04;;;;;;;0.40;0.20;;;;;;;;;;5082482;28;20047;-46
2022/09/22 11:12:36;;;;;;;1.95;0.40;;;;;;;;;;5091955;28;20051;-46
2022/09/22 11:15:36;;;;;;;0.63;0.38;;;;;;;;;;5090477;28;20083;-47
2022/09/22 11:18:18;;;;;;;2.85;0.50;;;;;;;;;;5092304;28;20545;-49
2022/09/22 11:20:46;;;;;;;1.85;0.30;;;;;;;;;;5093144;28;20052;-48
2022/09/22 11:23:41;;;;;;;0.68;0.30;;;;;;;;;;5095843;28;20048;-50
2022/09/22 11:26:18;;;;;;;1.73;0.60;;;;;;;;;;5052179;28;20457;-49
2022/09/22 11:28:53;;;;;;;1.80;0.50;;;;;;;;;;5094714;28;20063;-49
2022/09/22 11:31:28;;;;;;;1.58;0.40;;;;;;;;;;5093985;28;20052;-46
2022/09/22 11:34:00;;;;;;;;;;;;;;;;;;5089384;28;20044;-47
2022/09/22 11:36:35;;;;;;;1.05;0.40;;;;;;;;;;5095916;28;19973;-48
2022/09/22 11:39:07;;;;;;;;;;;;;;;;;;5093303;28;20396;-48
2022/09/22 11:41:38;;;;;;;3.50;0.80;;;;;;;;;;5095441;28;19930;-47
2022/09/22 11:44:16;;;;;;;0.60;0.35;;;;;;;;;;5095265;28;20052;-47
2022/09/22 11:46:49;;;;;;;0.80;0.50;;;;;;;;;;5095676;28;20044;-46
2022/09/22 11:49:22;;;;;;;0.85;0.43;;;;;;;;;;5095601;28;20076;-48
2022/09/22 11:52:07;;;;;;;0.38;0.30;;;;;;;;;;5071317;28;20151;-47
2022/09/22 11:54:44;;;;;;;0.40;0.30;;;;;;;;;;5091742;28;20074;-46
2022/09/22 11:57:16;;;;;;;0.40;0.30;;;;;;;;;;5083319;28;20048;-47
2022/09/22 11:59:48;;;;;;;1.23;0.30;;;;;;;;;;5089941;28;20048;-47
2022/09/22 12:02:21;;;;;;;1.52;0.47;;;;;;;;;;5089118;28;20461;-46
2022/09/22 12:04:52;;;;;;;0.55;0.38;;;;;;;;;;5088981;28;20399;-50
2022/09/22 12:07:24;;;;;;;0.50;0.40;;;;;;;;;;5075921;28;20087;-51
2022/09/22 12:09:52;;;;;;;1.08;0.50;;;;;;;;;;5088678;28;20060;-48
2022/09/22 12:12:21;;;;;;;0.50;0.25;;;;;;;;;;5085180;28;20044;-48
2022/09/22 12:14:55;;;;;;;2.65;0.30;;;;;;;;;;5088272;28;20465;-47
2022/09/22 12:17:24;;;;;;;0.63;0.30;;;;;;;;;;5094315;28;20047;-47
2022/09/22 12:19:55;;;;;;;0.63;0.20;;;;;;;;;;5089339;28;20059;-47
2022/09/22 12:22:26;;;;;;;1.95;0.40;;;;;;;;;;5090330;28;20055;-45
2022/09/22 12:24:54;;;;;;;0.73;0.28;;;;;;;;;;5093910;28;20604;-45
2022/09/22 12:27:22;;;;;;;1.45;0.50;;;;;;;;;;5094966;28;20054;-50
2022/09/22 12:30:04;;;;;;;0.68;0.30;;;;;;;;;;5091141;28;20052;-49
2022/09/22 12:32:35;;;;;;;1.23;0.38;;;;;;;;;;5092800;28;20051;-49
2022/09/22 12:35:04;;;;;;;2.05;0.30;;;;;;;;;;5089753;28;20048;-49
2022/09/22 12:37:35;;;;;;;1.95;0.35;;;;;;;;;;5087142;28;20051;-50
2022/09/22 12:40:07;;;;;;;0.45;0.32;;;;;;;;;;5095116;28;20047;-50
2022/09/22 12:42:38;;;;;;;0.90;0.30;;;;;;;;;;5086495;28;20059;-49
2022/09/22 12:45:19;;;;;;;3.83;0.70;;;;;;;;;;5091242;28;20052;-48
2022/09/22 12:47:49;;;;;;;1.35;0.60;;;;;;;;;;5094637;28;20048;-50
2022/09/22 12:50:34;;;;;;;0.40;0.30;;;;;;;;;;5088598;28;20479;-47
2022/09/22 12:53:09;;;;;;;0.43;0.30;;;;;;;;;;5087005;28;20048;-50
2022/09/22 12:55:40;;;;;;;1.05;0.50;;;;;;;;;;5087656;28;20435;-49
2022/09/22 12:58:27;;;;;;;0.95;0.30;;;;;;;;;;5091147;28;20063;-48
2022/09/22 13:01:22;;;;;;;2.50;0.60;;;;;;;;;;5093838;28;20125;-47
2022/09/22 13:03:52;;;;;;;0.50;0.40;;;;;;;;;;5089467;28;20056;-46
2022/09/22 13:06:42;;;;;;;1.00;0.38;;;;;;;;;;5087385;28;20131;-47
2022/09/22 13:09:09;;;;;;;1.40;0.30;;;;;;;;;;5086242;28;20056;-47
2022/09/22 13:11:54;;;;;;;3.38;0.60;;;;;;;;;;5091411;28;20047;-47
2022/09/22 13:14:45;;;;;;;1.20;0.55;;;;;;;;;;5086720;28;20051;-47
2022/09/22 13:17:26;;;;;;;1.38;0.55;;;;;;;;;;5089338;28;20044;-52
2022/09/22 13:20:09;;;;;;;0.63;0.50;;;;;;;;;;5091310;28;20470;-49
2022/09/22 13:22:39;;;;;;;2.97;0.70;;;;;;;;;;5093093;28;20040;-47
2022/09/22 13:25:21;;;;;;;1.70;0.38;;;;;;;;;;5093911;28;20121;-49
2022/09/22 13:27:50;;;;;;;1.90;0.40;;;;;;;;;;5087410;28;20048;-48
2022/09/22 13:30:16;;;;;;;0.55;0.30;;;;;;;;;;5092609;28;20051;-49
2022/09/22 13:32:50;;;;;;;0.60;0.38;;;;;;;;;;5091081;28;20040;-51
2022/09/22 13:35:36;;;;;;;0.90;0.40;;;;;;;;;;5079338;28;20075;-52
2022/09/22 13:38:08;;;;;;;;;;;;;;;;;;5087738;28;20182;-49
2022/09/22 13:40:35;;;;;;;0.77;0.35;;;;;;;;;;5091668;28;20026;-50
2022/09/22 13:43:08;;;;;;;1.95;0.25;;;;;;;;;;5093401;28;20052;-52
2022/09/22 13:45:37;;;;;;;1.85;0.40;;;;;;;;;;5090213;28;20052;-51
2022/09/22 13:48:07;;;;;;;0.68;0.50;;;;;;;;;;5092208;28;20121;-48
2022/09/22 13:50:42;;;;;;;0.88;0.45;;;;;;;;;;5092677;28;20069;-51
2022/09/22 13:53:10;;;;;;;;;;;;;;;;;;5090166;28;20171;-50
2022/09/22 13:55:40;;;;;;;0.80;0.40;;;;;;;;;;5090667;28;19946;-49
2022/09/22 13:58:12;;;;;;;1.30;0.40;;;;;;;;;;5093560;28;20071;-50
2022/09/22 14:00:42;;;;;;;0.60;0.30;;;;;;;;;;5092964;28;20048;-49
2022/09/22 14:03:19;;;;;;;1.17;0.40;;;;;;;;;;5083764;28;20452;-47
2022/09/22 14:05:52;;;;;;;0.60;0.40;;;;;;;;;;5090431;28;20055;-48
2022/09/22 14:08:20;;;;;;;0.45;0.20;;;;;;;;;;5083499;28;20115;-47
2022/09/22 14:10:51;;;;;;;1.02;0.30;;;;;;;;;;5090917;28;20044;-50
2022/09/22 14:13:36;;;;;;;0.20;0.20;;;;;;;;;;5083838;28;20127;-46
2022/09/22 14:16:08;;;;;;;0.82;0.30;;;;;;;;;;5085434;28;20056;-52
2022/09/22 14:18:39;;;;;;;1.08;0.40;;;;;;;;;;5080199;28;20063;-49
2022/09/22 14:21:22;;;;;;;0.20;0.17;;;;;;;;;;5087250;28;20056;-50
2022/09/22 14:23:51;;;;;;;0.40;0.30;;;;;;;;;;5088787;28;20048;-49
2022/09/22 14:26:34;;;;;;;0.43;0.35;;;;;;;;;;5085109;28;20047;-49
2022/09/22 14:29:14;;;;;;;0.55;0.25;;;;;;;;;;5092645;28;20050;-48
2022/09/22 14:31:45;;;;;;;0.63;0.30;;;;;;;;;;5091658;28;20052;-47
2022/09/22 14:34:16;;;;;;;0.88;0.40;;;;;;;;;;5084940;28;20346;-49
2022/09/22 14:36:46;;;;;;;0.32;0.30;;;;;;;;;;5088517;28;20052;-49
2022/09/22 14:39:23;;;;;;;1.25;0.30;;;;;;;;;;5090526;28;20044;-48
2022/09/22 14:41:57;;;;;;;1.38;0.20;;;;;;;;;;5091994;28;20055;-48
2022/09/22 14:44:35;;;;;;;0.40;0.30;;;;;;;;;;5090348;28;20524;-50
2022/09/22 14:47:12;;;;;;;1.55;0.40;;;;;;;;;;5091341;28;20052;-49
2022/09/22 14:49:43;;;;;;;0.88;0.30;;;;;;;;;;5091543;28;20126;-49
2022/09/22 14:52:17;;;;;;;0.75;0.40;;;;;;;;;;5085334;28;20437;-47
2022/09/22 14:54:44;;;;;;;1.65;0.30;;;;;;;;;;5086073;28;20051;-47
2022/09/22 14:57:21;;;;;;;1.85;0.30;;;;;;;;;;5086360;28;20041;-47
2022/09/22 15:02:35;;;;;;;0.82;0.40;;;;;;;;;;5084871;28;20042;-46
2022/09/22 15:05:03;;;;;;;0.40;0.32;;;;;;;;;;5091255;28;20051;-48
2022/09/22 15:07:32;;;;;;;0.43;0.30;;;;;;;;;;5081368;28;20059;-47
2022/09/22 15:10:16;;;;;;;3.50;1.80;;;;;;;;;;5088451;28;20055;-47
2022/09/22 15:12:51;;;;;;;2.08;1.00;;;;;;;;;;5077873;28;20119;-48
2022/09/22 15:15:20;;;;;;;1.85;1.08;;;;;;;;;;5084299;28;20055;-49
2022/09/22 15:20:33;;;;;;;;;;;;;;;;;;5091211;28;20086;-46
2022/09/22 15:23:01;;;;;;;1.23;0.70;;;;;;;;;;5090739;28;19924;-46
2022/09/22 15:25:34;;;;;;;1.13;0.68;;;;;;;;;;5090946;28;20048;-46
2022/09/22 15:28:08;;;;;;;1.48;0.82;;;;;;;;;;5077290;28;20055;-46
2022/09/22 15:30:34;;;;;;;1.17;0.70;;;;;;;;;;5091054;28;20195;-47
2022/09/22 15:33:04;;;;;;;1.08;0.70;;;;;;;;;;5090545;28;20055;-47
2022/09/22 15:35:36;;;;;;;1.90;0.80;;;;;;;;;;5077934;28;20079;-47